createdAt,value
2022-11-01T00:02:11.126Z,18.20
2022-11-01T00:06:12.382Z,18.50
2022-11-01T00:10:13.779Z,18.50
2022-11-01T00:14:16.898Z,18.90
2022-11-01T00:18:18.243Z,18.20
2022-11-01T00:22:21.307Z,18.60
2022-11-01T00:26:23.857Z,18.60
2022-11-01T00:30:25.000Z,18.80
2022-11-01T00:34:26.240Z,18.60
2022-11-01T00:38:27.969Z,17.60
2022-11-01T00:42:29.087Z,17.10
2022-11-01T00:46:31.240Z,17.80
2022-11-01T00:50:32.302Z,17.40
2022-11-01T00:54:33.446Z,17.40
2022-11-01T00:58:34.990Z,17.90
2022-11-01T01:02:36.606Z,17.90
2022-11-01T01:06:37.705Z,17.80
2022-11-01T01:10:38.772Z,17.90
2022-11-01T01:14:39.972Z,17.70
2022-11-01T01:18:41.109Z,18.00
2022-11-01T01:22:42.405Z,17.50
2022-11-01T01:26:43.585Z,17.40
2022-11-01T01:30:45.003Z,17.50
2022-11-01T01:34:46.481Z,17.70
2022-11-01T01:38:49.633Z,17.50
2022-11-01T01:42:50.847Z,17.40
2022-11-01T01:46:52.016Z,17.50
2022-11-01T01:51:00.251Z,17.20
2022-11-01T01:55:05.049Z,18.10
2022-11-01T01:59:10.361Z,18.00
2022-11-01T02:03:12.330Z,18.80
2022-11-01T02:07:13.288Z,18.80
2022-11-01T02:11:16.165Z,18.00
2022-11-01T02:15:19.966Z,18.60
2022-11-01T02:19:41.603Z,19.10
2022-11-01T02:24:06.000Z,18.80
2022-11-01T02:28:18.490Z,17.80
2022-11-01T02:32:39.949Z,17.70
2022-11-01T02:36:47.826Z,18.50
2022-11-01T02:41:07.945Z,18.20
2022-11-01T02:45:20.521Z,17.90
2022-11-01T02:49:23.501Z,17.40
2022-11-01T02:53:24.588Z,18.10
2022-11-01T02:57:29.461Z,18.20
2022-11-01T03:01:33.843Z,17.50
2022-11-01T03:05:50.624Z,16.40
2022-11-01T03:09:51.702Z,16.80
2022-11-01T03:14:08.648Z,16.90
2022-11-01T03:18:13.405Z,16.60
2022-11-01T03:22:33.495Z,16.60
2022-11-01T03:26:36.561Z,16.60
2022-11-01T03:30:43.189Z,17.10
2022-11-01T03:34:45.861Z,17.10
2022-11-01T03:38:59.746Z,17.50
2022-11-01T03:43:04.664Z,17.50
2022-11-01T03:47:07.078Z,17.30
2022-11-01T03:51:08.253Z,17.20
2022-11-01T03:55:19.034Z,16.80
2022-11-01T03:59:20.379Z,17.20
2022-11-01T04:03:21.247Z,17.20
2022-11-01T04:07:22.338Z,17.50
2022-11-01T04:11:23.330Z,16.80
2022-11-01T04:15:44.157Z,16.80
2022-11-01T04:20:03.710Z,16.70
2022-11-01T04:24:05.274Z,17.30
2022-11-01T04:28:06.222Z,16.80
2022-11-01T04:32:07.172Z,16.90
2022-11-01T04:36:08.620Z,16.80
2022-11-01T04:40:10.821Z,16.40
2022-11-01T04:44:12.305Z,16.60
2022-11-01T04:48:17.359Z,16.20
2022-11-01T04:52:18.513Z,16.20
2022-11-01T04:56:19.500Z,15.70
2022-11-01T05:00:22.504Z,16.00
2022-11-01T05:04:23.470Z,16.00
2022-11-01T05:08:24.453Z,16.60
2022-11-01T05:12:25.648Z,16.90
2022-11-01T05:16:26.705Z,17.10
2022-11-01T05:20:30.107Z,16.00
2022-11-01T05:24:31.232Z,14.80
2022-11-01T05:28:32.153Z,16.40
2022-11-01T05:32:34.824Z,17.00
2022-11-01T05:36:35.922Z,16.90
2022-11-01T05:40:37.112Z,16.80
2022-11-01T05:44:38.235Z,16.80
2022-11-01T05:48:40.998Z,16.30
2022-11-01T05:52:42.458Z,16.20
2022-11-01T05:56:43.451Z,16.20
2022-11-01T06:00:44.430Z,15.80
2022-11-01T06:04:45.532Z,15.80
2022-11-01T06:08:46.592Z,15.50
2022-11-01T06:12:47.713Z,15.70
2022-11-01T06:16:48.995Z,15.90
2022-11-01T06:20:50.798Z,16.50
2022-11-01T06:24:51.940Z,16.60
2022-11-01T06:28:53.128Z,16.20
2022-11-01T06:33:01.536Z,16.40
2022-11-01T06:37:03.132Z,15.80
2022-11-01T06:41:04.506Z,15.80
2022-11-01T06:45:05.779Z,16.20
2022-11-01T06:49:06.759Z,15.80
2022-11-01T06:53:08.738Z,15.70
2022-11-01T06:57:09.862Z,15.90
2022-11-01T07:01:10.922Z,15.60
2022-11-01T07:05:12.034Z,15.20
2022-11-01T07:09:13.102Z,15.40
2022-11-01T07:13:14.212Z,15.50
2022-11-01T07:17:15.158Z,15.20
2022-11-01T07:21:16.143Z,15.50
2022-11-01T07:25:17.138Z,15.40
2022-11-01T07:29:20.141Z,15.00
2022-11-01T07:33:21.295Z,15.40
2022-11-01T07:37:22.205Z,15.70
2022-11-01T07:41:23.367Z,16.00
2022-11-01T07:45:25.983Z,16.00
2022-11-01T07:49:27.106Z,15.70
2022-11-01T07:53:28.265Z,15.90
2022-11-01T07:57:29.276Z,16.70
2022-11-01T08:01:30.912Z,16.30
2022-11-01T08:05:32.384Z,16.60
2022-11-01T08:09:33.355Z,16.60
2022-11-01T08:13:34.408Z,16.80
2022-11-01T08:17:35.678Z,16.70
2022-11-01T08:21:36.831Z,16.80
2022-11-01T08:25:38.642Z,17.40
2022-11-01T08:29:39.995Z,17.20
2022-11-01T08:33:41.092Z,17.30
2022-11-01T08:37:51.621Z,17.30
2022-11-01T08:41:52.839Z,16.90
2022-11-01T08:45:53.826Z,17.00
2022-11-01T08:49:54.765Z,16.30
2022-11-01T08:53:56.154Z,17.00
2022-11-01T08:58:00.572Z,16.60
2022-11-01T09:02:02.239Z,16.20
2022-11-01T09:06:05.043Z,16.10
2022-11-01T09:10:07.149Z,16.00
2022-11-01T09:14:08.437Z,16.80
2022-11-01T09:18:09.353Z,17.10
2022-11-01T09:22:10.415Z,16.90
2022-11-01T09:26:12.585Z,16.50
2022-11-01T09:30:14.076Z,17.00
2022-11-01T09:34:15.030Z,16.60
2022-11-01T09:38:16.161Z,17.00
2022-11-01T09:42:42.226Z,16.90
2022-11-01T09:46:47.025Z,17.00
2022-11-01T09:50:48.083Z,17.30
2022-11-01T09:54:49.856Z,17.10
2022-11-01T09:59:01.648Z,16.80
2022-11-01T10:03:19.463Z,16.20
2022-11-01T10:07:27.170Z,16.60
2022-11-01T10:11:47.263Z,17.00
2022-11-01T10:15:58.250Z,16.90
2022-11-01T10:20:00.326Z,16.90
2022-11-01T10:24:06.764Z,17.00
2022-11-01T10:28:14.809Z,17.10
2022-11-01T10:32:34.532Z,16.70
2022-11-01T10:36:39.356Z,17.10
2022-11-01T10:41:04.046Z,17.10
2022-11-01T10:45:09.109Z,17.20
2022-11-01T10:49:24.528Z,16.90
2022-11-01T10:53:28.261Z,17.40
2022-11-01T10:57:42.921Z,18.60
2022-11-01T11:01:45.103Z,19.00
2022-11-01T11:05:48.375Z,18.40
2022-11-01T11:09:50.600Z,19.20
2022-11-01T11:13:54.559Z,18.20
2022-11-01T11:17:58.875Z,17.60
2022-11-01T11:22:02.126Z,18.70
2022-11-01T11:26:06.465Z,19.30
2022-11-01T11:30:11.633Z,19.70
2022-11-01T11:34:25.658Z,19.80
2022-11-01T11:38:41.946Z,19.70
2022-11-01T11:42:43.855Z,19.90
2022-11-01T11:46:57.231Z,19.80
2022-11-01T11:51:01.517Z,19.70
2022-11-01T11:55:03.079Z,20.10
2022-11-01T11:59:20.472Z,19.80
2022-11-01T12:03:22.308Z,20.40
2022-11-01T12:07:27.733Z,19.70
2022-11-01T12:11:41.449Z,19.30
2022-11-01T12:15:42.598Z,19.50
2022-11-01T12:19:43.821Z,19.10
2022-11-01T12:23:46.386Z,19.10
2022-11-01T12:27:51.260Z,19.70
2022-11-01T12:31:54.994Z,19.80
2022-11-01T12:35:58.045Z,20.20
2022-11-01T12:40:08.782Z,19.90
2022-11-01T12:44:28.873Z,20.70
2022-11-01T12:48:39.108Z,19.40
2022-11-01T12:52:44.002Z,19.40
2022-11-01T12:56:45.417Z,19.80
2022-11-01T13:01:05.576Z,19.90
2022-11-01T13:05:19.105Z,19.10
2022-11-01T13:09:40.722Z,19.80
2022-11-01T13:13:48.033Z,19.80
2022-11-01T13:18:22.318Z,19.80
2022-11-01T13:22:36.188Z,20.00
2022-11-01T13:26:46.955Z,20.20
2022-11-01T13:31:04.442Z,20.80
2022-11-01T13:35:18.329Z,20.20
2022-11-01T13:39:23.295Z,20.10
2022-11-01T13:43:28.502Z,20.40
2022-11-01T13:51:50.826Z,20.00
2022-11-01T13:56:04.543Z,20.80
2022-11-01T14:00:08.741Z,20.50
2022-11-01T14:04:20.009Z,20.60
2022-11-01T14:08:29.961Z,19.40
2022-11-01T14:12:43.440Z,19.40
2022-11-01T14:16:42.717Z,19.60
2022-11-01T14:20:46.222Z,18.70
2022-11-01T14:24:59.637Z,18.90
2022-11-01T14:29:02.039Z,19.10
2022-11-01T14:33:03.881Z,18.70
2022-11-01T14:37:20.916Z,18.00
2022-11-01T14:41:24.725Z,18.00
2022-11-01T14:45:29.518Z,18.10
2022-11-01T14:49:44.265Z,18.20
2022-11-01T14:53:47.822Z,18.00
2022-11-01T14:57:49.145Z,18.20
2022-11-01T15:02:02.109Z,17.60
2022-11-01T15:05:59.917Z,17.30
2022-11-01T15:10:04.673Z,17.10
2022-11-01T15:14:07.591Z,16.90
2022-11-01T15:18:18.217Z,17.10
2022-11-01T15:22:23.077Z,16.50
2022-11-01T15:26:27.395Z,17.20
2022-11-01T15:30:31.475Z,16.70
2022-11-01T15:34:36.109Z,16.40
2022-11-01T15:38:52.896Z,16.50
2022-11-01T15:43:00.148Z,16.70
2022-11-01T15:47:02.798Z,16.40
2022-11-01T15:51:08.352Z,16.30
2022-11-01T15:55:31.670Z,16.00
2022-11-01T15:59:36.821Z,15.70
2022-11-01T16:03:47.846Z,16.10
2022-11-01T16:07:49.311Z,16.20
2022-11-01T16:11:54.399Z,16.20
2022-11-01T16:16:07.766Z,15.80
2022-11-01T16:20:35.248Z,15.40
2022-11-01T16:24:36.238Z,15.00
2022-11-01T16:28:40.124Z,15.10
2022-11-01T16:32:41.138Z,15.20
2022-11-01T16:36:42.219Z,15.00
2022-11-01T16:40:43.278Z,14.80
2022-11-01T16:44:46.521Z,14.70
2022-11-01T16:48:53.982Z,14.80
2022-11-01T16:52:55.274Z,15.10
2022-11-01T16:56:58.907Z,14.70
2022-11-01T17:00:59.935Z,14.50
2022-11-01T17:05:18.187Z,14.40
2022-11-01T17:09:22.142Z,13.90
2022-11-01T17:13:23.871Z,14.10
2022-11-01T17:17:26.828Z,14.40
2022-11-01T17:21:30.772Z,14.40
2022-11-01T17:25:32.683Z,14.50
2022-11-01T17:29:33.822Z,15.00
2022-11-01T17:33:34.920Z,15.10
2022-11-01T17:37:36.190Z,15.00
2022-11-01T17:41:37.375Z,15.30
2022-11-01T17:45:38.885Z,15.20
2022-11-01T17:49:39.975Z,15.40
2022-11-01T17:53:41.639Z,15.40
2022-11-01T17:57:46.035Z,15.00
2022-11-01T18:01:47.376Z,14.70
2022-11-01T18:05:48.507Z,14.00
2022-11-01T18:09:49.410Z,13.50
2022-11-01T18:14:01.139Z,14.10
2022-11-01T18:18:22.202Z,14.30
2022-11-01T18:22:45.474Z,14.20
2022-11-01T18:26:47.111Z,14.20
2022-11-01T18:31:17.968Z,14.60
2022-11-01T18:35:40.846Z,14.70
2022-11-01T18:39:51.542Z,14.40
2022-11-01T18:43:53.532Z,14.30
2022-11-01T18:48:04.341Z,14.40
2022-11-01T18:52:16.219Z,14.20
2022-11-01T18:56:23.310Z,14.70
2022-11-01T19:00:24.267Z,15.10
2022-11-01T19:04:28.877Z,15.00
2022-11-01T19:08:30.013Z,14.90
2022-11-01T19:12:34.818Z,15.20
2022-11-01T19:16:37.017Z,14.60
2022-11-01T19:20:49.777Z,14.50
2022-11-01T19:24:51.020Z,14.40
2022-11-01T19:28:52.848Z,14.30
2022-11-01T19:32:57.448Z,14.40
2022-11-01T19:37:02.272Z,14.10
2022-11-01T19:41:04.610Z,13.90
2022-11-01T19:45:15.227Z,14.00
2022-11-01T19:49:29.385Z,14.00
2022-11-01T19:53:33.267Z,13.90
2022-11-01T19:57:37.627Z,13.60
2022-11-01T20:01:45.435Z,13.30
2022-11-01T20:05:46.831Z,13.80
2022-11-01T20:09:48.051Z,13.20
2022-11-01T20:13:49.175Z,13.50
2022-11-01T20:17:50.232Z,13.70
2022-11-01T20:21:51.224Z,13.30
2022-11-01T20:25:52.319Z,12.70
2022-11-01T20:29:53.373Z,12.80
2022-11-01T20:33:54.350Z,13.00
2022-11-01T20:37:55.645Z,13.10
2022-11-01T20:41:56.720Z,13.10
2022-11-01T20:45:57.826Z,12.80
2022-11-01T20:50:02.773Z,13.20
2022-11-01T20:54:03.785Z,13.30
2022-11-01T20:58:05.128Z,12.80
2022-11-01T21:02:10.724Z,12.40
2022-11-01T21:06:17.124Z,12.40
2022-11-01T21:10:27.981Z,12.30
2022-11-01T21:14:36.297Z,13.10
2022-11-01T21:18:43.498Z,12.80
2022-11-01T21:22:44.521Z,12.80
2022-11-01T21:26:50.850Z,12.60
2022-11-01T21:30:51.174Z,12.90
2022-11-01T21:34:53.190Z,12.90
2022-11-01T21:39:00.844Z,13.00
2022-11-01T21:43:03.409Z,13.00
2022-11-01T21:47:17.398Z,12.60
2022-11-01T21:51:18.580Z,13.10
2022-11-01T21:55:19.800Z,12.70
2022-11-01T21:59:20.798Z,12.80
2022-11-01T22:03:21.810Z,12.90
2022-11-01T22:07:23.032Z,13.50
2022-11-01T22:11:24.511Z,13.20
2022-11-01T22:15:27.038Z,12.80
2022-11-01T22:19:28.203Z,13.10
2022-11-01T22:23:29.227Z,12.90
2022-11-01T22:27:30.241Z,13.20
2022-11-01T22:31:31.306Z,13.30
2022-11-01T22:35:32.360Z,12.60
2022-11-01T22:39:33.459Z,13.10
2022-11-01T22:43:35.013Z,12.90
2022-11-01T22:47:36.105Z,13.00
2022-11-01T22:51:40.088Z,13.50
2022-11-01T22:55:45.721Z,13.20
2022-11-01T22:59:56.340Z,12.70
2022-11-01T23:03:58.337Z,12.80
2022-11-01T23:08:03.102Z,12.80
2022-11-01T23:12:26.449Z,13.50
2022-11-01T23:16:31.054Z,13.20
2022-11-01T23:20:32.025Z,13.00
2022-11-01T23:24:33.018Z,13.10
2022-11-01T23:28:34.874Z,13.00
2022-11-01T23:32:36.215Z,13.50
2022-11-01T23:36:38.162Z,13.20
2022-11-01T23:40:39.148Z,13.10
2022-11-01T23:44:41.213Z,13.00
2022-11-01T23:48:44.405Z,13.20
2022-11-01T23:52:55.391Z,13.40
2022-11-01T23:56:56.569Z,13.20
